sensor_id;sensor_type;location;lat;lon;timestamp;P1;durP1;ratioP1;P2;durP2;ratioP2
19043;SDS011;9654;52.302;8.120;2024-02-04T00:00:34;30.90;;;15.23;;
19043;SDS011;9654;52.302;8.120;2024-02-04T00:03:03;24.53;;;13.70;;
19043;SDS011;9654;52.302;8.120;2024-02-04T00:05:30;27.60;;;14.20;;
19043;SDS011;9654;52.302;8.120;2024-02-04T00:07:57;26.53;;;13.50;;
19043;SDS011;9654;52.302;8.120;2024-02-04T00:10:23;28.87;;;14.20;;
19043;SDS011;9654;52.302;8.120;2024-02-04T00:12:51;27.77;;;14.70;;
19043;SDS011;9654;52.302;8.120;2024-02-04T00:15:18;26.53;;;14.87;;
19043;SDS011;9654;52.302;8.120;2024-02-04T00:17:46;27.43;;;13.50;;
19043;SDS011;9654;52.302;8.120;2024-02-04T00:20:14;38.87;;;19.70;;
19043;SDS011;9654;52.302;8.120;2024-02-04T00:22:41;27.57;;;15.10;;
19043;SDS011;9654;52.302;8.120;2024-02-04T00:25:08;30.20;;;15.07;;
19043;SDS011;9654;52.302;8.120;2024-02-04T00:27:36;33.37;;;16.17;;
19043;SDS011;9654;52.302;8.120;2024-02-04T00:30:06;29.77;;;12.73;;
19043;SDS011;9654;52.302;8.120;2024-02-04T00:32:34;24.73;;;12.87;;
19043;SDS011;9654;52.302;8.120;2024-02-04T00:35:01;23.43;;;13.60;;
19043;SDS011;9654;52.302;8.120;2024-02-04T00:37:29;25.33;;;12.83;;
19043;SDS011;9654;52.302;8.120;2024-02-04T00:39:56;24.30;;;11.53;;
19043;SDS011;9654;52.302;8.120;2024-02-04T00:42:23;19.33;;;10.10;;
19043;SDS011;9654;52.302;8.120;2024-02-04T00:44:50;20.90;;;10.63;;
19043;SDS011;9654;52.302;8.120;2024-02-04T00:47:17;19.27;;;9.77;;
19043;SDS011;9654;52.302;8.120;2024-02-04T00:49:43;17.33;;;9.33;;
19043;SDS011;9654;52.302;8.120;2024-02-04T00:52:10;21.50;;;10.80;;
19043;SDS011;9654;52.302;8.120;2024-02-04T00:54:39;28.10;;;11.80;;
19043;SDS011;9654;52.302;8.120;2024-02-04T00:57:05;23.77;;;11.00;;
19043;SDS011;9654;52.302;8.120;2024-02-04T00:59:32;20.40;;;10.50;;
19043;SDS011;9654;52.302;8.120;2024-02-04T01:01:59;21.03;;;11.10;;
19043;SDS011;9654;52.302;8.120;2024-02-04T01:04:26;22.50;;;10.73;;
19043;SDS011;9654;52.302;8.120;2024-02-04T01:06:53;17.67;;;11.20;;
19043;SDS011;9654;52.302;8.120;2024-02-04T01:09:20;21.17;;;11.67;;
19043;SDS011;9654;52.302;8.120;2024-02-04T01:11:48;25.43;;;13.33;;
19043;SDS011;9654;52.302;8.120;2024-02-04T01:14:16;24.97;;;11.93;;
19043;SDS011;9654;52.302;8.120;2024-02-04T01:16:43;30.13;;;13.77;;
19043;SDS011;9654;52.302;8.120;2024-02-04T01:19:09;23.07;;;12.50;;
19043;SDS011;9654;52.302;8.120;2024-02-04T01:21:36;27.40;;;12.73;;
19043;SDS011;9654;52.302;8.120;2024-02-04T01:24:03;24.90;;;13.37;;
19043;SDS011;9654;52.302;8.120;2024-02-04T01:26:31;22.20;;;11.60;;
19043;SDS011;9654;52.302;8.120;2024-02-04T01:28:59;22.77;;;13.30;;
19043;SDS011;9654;52.302;8.120;2024-02-04T01:31:26;30.57;;;14.33;;
19043;SDS011;9654;52.302;8.120;2024-02-04T01:33:53;25.37;;;14.07;;
19043;SDS011;9654;52.302;8.120;2024-02-04T01:36:20;28.43;;;15.93;;
19043;SDS011;9654;52.302;8.120;2024-02-04T01:38:47;31.53;;;17.13;;
19043;SDS011;9654;52.302;8.120;2024-02-04T01:41:14;34.40;;;16.50;;
19043;SDS011;9654;52.302;8.120;2024-02-04T01:43:41;29.43;;;16.10;;
19043;SDS011;9654;52.302;8.120;2024-02-04T01:46:09;32.23;;;15.60;;
19043;SDS011;9654;52.302;8.120;2024-02-04T01:48:37;29.37;;;14.93;;
19043;SDS011;9654;52.302;8.120;2024-02-04T01:51:04;32.77;;;16.00;;
19043;SDS011;9654;52.302;8.120;2024-02-04T01:53:31;29.73;;;14.87;;
19043;SDS011;9654;52.302;8.120;2024-02-04T01:56:00;31.60;;;16.83;;
19043;SDS011;9654;52.302;8.120;2024-02-04T01:58:29;39.07;;;17.60;;
19043;SDS011;9654;52.302;8.120;2024-02-04T02:00:55;38.43;;;17.97;;
19043;SDS011;9654;52.302;8.120;2024-02-04T02:03:24;44.33;;;18.40;;
19043;SDS011;9654;52.302;8.120;2024-02-04T02:05:53;41.97;;;18.93;;
19043;SDS011;9654;52.302;8.120;2024-02-04T02:08:21;39.07;;;18.37;;
19043;SDS011;9654;52.302;8.120;2024-02-04T02:10:48;35.07;;;18.43;;
19043;SDS011;9654;52.302;8.120;2024-02-04T02:13:24;41.33;;;19.07;;
19043;SDS011;9654;52.302;8.120;2024-02-04T02:15:56;41.37;;;19.10;;
19043;SDS011;9654;52.302;8.120;2024-02-04T02:18:31;35.30;;;17.57;;
19043;SDS011;9654;52.302;8.120;2024-02-04T02:21:10;35.77;;;17.57;;
19043;SDS011;9654;52.302;8.120;2024-02-04T02:23:48;36.37;;;17.87;;
19043;SDS011;9654;52.302;8.120;2024-02-04T02:26:27;34.87;;;17.97;;
19043;SDS011;9654;52.302;8.120;2024-02-04T02:28:55;36.20;;;18.23;;
19043;SDS011;9654;52.302;8.120;2024-02-04T02:31:21;33.83;;;16.90;;
19043;SDS011;9654;52.302;8.120;2024-02-04T02:33:48;33.03;;;17.20;;
19043;SDS011;9654;52.302;8.120;2024-02-04T02:36:17;30.83;;;16.23;;
19043;SDS011;9654;52.302;8.120;2024-02-04T02:38:52;29.70;;;15.53;;
19043;SDS011;9654;52.302;8.120;2024-02-04T02:41:25;34.07;;;15.80;;
19043;SDS011;9654;52.302;8.120;2024-02-04T02:43:56;42.13;;;16.03;;
19043;SDS011;9654;52.302;8.120;2024-02-04T02:46:23;29.40;;;16.47;;
19043;SDS011;9654;52.302;8.120;2024-02-04T02:48:50;29.67;;;15.07;;
19043;SDS011;9654;52.302;8.120;2024-02-04T02:51:17;28.50;;;14.43;;
19043;SDS011;9654;52.302;8.120;2024-02-04T02:53:44;26.53;;;14.47;;
19043;SDS011;9654;52.302;8.120;2024-02-04T02:56:11;27.17;;;13.90;;
19043;SDS011;9654;52.302;8.120;2024-02-04T02:58:39;25.70;;;14.50;;
19043;SDS011;9654;52.302;8.120;2024-02-04T03:01:06;24.93;;;14.17;;
19043;SDS011;9654;52.302;8.120;2024-02-04T03:03:33;30.63;;;15.03;;
19043;SDS011;9654;52.302;8.120;2024-02-04T03:06:00;25.97;;;15.63;;
19043;SDS011;9654;52.302;8.120;2024-02-04T03:08:27;26.27;;;13.80;;
19043;SDS011;9654;52.302;8.120;2024-02-04T03:10:53;24.73;;;13.47;;
19043;SDS011;9654;52.302;8.120;2024-02-04T03:13:20;25.63;;;13.43;;
19043;SDS011;9654;52.302;8.120;2024-02-04T03:15:49;25.33;;;13.73;;
19043;SDS011;9654;52.302;8.120;2024-02-04T03:18:15;21.27;;;12.83;;
19043;SDS011;9654;52.302;8.120;2024-02-04T03:20:42;23.87;;;13.40;;
19043;SDS011;9654;52.302;8.120;2024-02-04T03:23:09;29.00;;;14.40;;
19043;SDS011;9654;52.302;8.120;2024-02-04T03:25:36;32.30;;;14.70;;
19043;SDS011;9654;52.302;8.120;2024-02-04T03:28:03;28.27;;;13.67;;
19043;SDS011;9654;52.302;8.120;2024-02-04T03:30:30;30.17;;;15.57;;
19043;SDS011;9654;52.302;8.120;2024-02-04T03:32:58;24.23;;;11.60;;
19043;SDS011;9654;52.302;8.120;2024-02-04T03:35:25;22.07;;;12.27;;
19043;SDS011;9654;52.302;8.120;2024-02-04T03:37:52;21.30;;;11.63;;
19043;SDS011;9654;52.302;8.120;2024-02-04T03:40:19;27.00;;;12.30;;
19043;SDS011;9654;52.302;8.120;2024-02-04T03:42:49;23.33;;;11.87;;
19043;SDS011;9654;52.302;8.120;2024-02-04T03:45:16;21.20;;;12.17;;
19043;SDS011;9654;52.302;8.120;2024-02-04T03:47:43;26.97;;;12.80;;
19043;SDS011;9654;52.302;8.120;2024-02-04T03:50:11;20.60;;;11.47;;
19043;SDS011;9654;52.302;8.120;2024-02-04T03:52:38;25.67;;;12.03;;
19043;SDS011;9654;52.302;8.120;2024-02-04T03:55:06;24.47;;;12.90;;
19043;SDS011;9654;52.302;8.120;2024-02-04T03:57:32;20.43;;;12.20;;
19043;SDS011;9654;52.302;8.120;2024-02-04T03:59:59;29.57;;;14.20;;
19043;SDS011;9654;52.302;8.120;2024-02-04T04:02:26;32.03;;;16.57;;
19043;SDS011;9654;52.302;8.120;2024-02-04T04:04:53;29.40;;;15.53;;
19043;SDS011;9654;52.302;8.120;2024-02-04T04:07:21;29.00;;;15.50;;
19043;SDS011;9654;52.302;8.120;2024-02-04T04:09:48;25.67;;;14.03;;
19043;SDS011;9654;52.302;8.120;2024-02-04T04:12:15;25.90;;;14.50;;
19043;SDS011;9654;52.302;8.120;2024-02-04T04:14:42;24.87;;;14.60;;
19043;SDS011;9654;52.302;8.120;2024-02-04T04:17:09;27.93;;;14.60;;
19043;SDS011;9654;52.302;8.120;2024-02-04T04:19:35;24.03;;;12.83;;
19043;SDS011;9654;52.302;8.120;2024-02-04T04:22:02;21.60;;;11.90;;
19043;SDS011;9654;52.302;8.120;2024-02-04T04:24:31;22.73;;;11.97;;
19043;SDS011;9654;52.302;8.120;2024-02-04T04:26:58;19.53;;;11.07;;
19043;SDS011;9654;52.302;8.120;2024-02-04T04:29:25;18.70;;;10.33;;
19043;SDS011;9654;52.302;8.120;2024-02-04T04:31:52;17.33;;;8.77;;
19043;SDS011;9654;52.302;8.120;2024-02-04T04:34:19;17.10;;;8.80;;
19043;SDS011;9654;52.302;8.120;2024-02-04T04:36:46;12.10;;;6.57;;
19043;SDS011;9654;52.302;8.120;2024-02-04T04:39:14;12.17;;;6.83;;
19043;SDS011;9654;52.302;8.120;2024-02-04T04:41:43;11.60;;;6.80;;
19043;SDS011;9654;52.302;8.120;2024-02-04T04:44:11;9.57;;;6.03;;
19043;SDS011;9654;52.302;8.120;2024-02-04T04:46:37;13.23;;;7.27;;
19043;SDS011;9654;52.302;8.120;2024-02-04T04:49:05;12.47;;;6.10;;
19043;SDS011;9654;52.302;8.120;2024-02-04T04:51:32;10.37;;;4.97;;
19043;SDS011;9654;52.302;8.120;2024-02-04T04:53:59;9.07;;;4.73;;
19043;SDS011;9654;52.302;8.120;2024-02-04T04:56:26;8.23;;;4.50;;
19043;SDS011;9654;52.302;8.120;2024-02-04T04:58:56;8.23;;;5.10;;
19043;SDS011;9654;52.302;8.120;2024-02-04T05:01:24;9.23;;;5.23;;
19043;SDS011;9654;52.302;8.120;2024-02-04T05:03:51;8.20;;;4.50;;
19043;SDS011;9654;52.302;8.120;2024-02-04T05:06:19;7.47;;;5.20;;
19043;SDS011;9654;52.302;8.120;2024-02-04T05:08:46;6.90;;;5.30;;
19043;SDS011;9654;52.302;8.120;2024-02-04T05:11:13;10.63;;;6.47;;
19043;SDS011;9654;52.302;8.120;2024-02-04T05:13:40;9.37;;;5.47;;
19043;SDS011;9654;52.302;8.120;2024-02-04T05:16:08;12.17;;;5.67;;
19043;SDS011;9654;52.302;8.120;2024-02-04T05:18:35;8.53;;;5.50;;
19043;SDS011;9654;52.302;8.120;2024-02-04T05:21:02;9.37;;;5.60;;
19043;SDS011;9654;52.302;8.120;2024-02-04T05:23:30;12.40;;;4.80;;
19043;SDS011;9654;52.302;8.120;2024-02-04T05:25:57;8.63;;;4.73;;
19043;SDS011;9654;52.302;8.120;2024-02-04T05:28:28;10.97;;;4.63;;
19043;SDS011;9654;52.302;8.120;2024-02-04T05:30:55;8.73;;;5.17;;
19043;SDS011;9654;52.302;8.120;2024-02-04T05:33:23;15.63;;;7.27;;
19043;SDS011;9654;52.302;8.120;2024-02-04T05:35:50;9.70;;;6.40;;
19043;SDS011;9654;52.302;8.120;2024-02-04T05:38:17;13.33;;;5.70;;
19043;SDS011;9654;52.302;8.120;2024-02-04T05:40:44;8.40;;;5.70;;
19043;SDS011;9654;52.302;8.120;2024-02-04T05:43:11;8.33;;;5.43;;
19043;SDS011;9654;52.302;8.120;2024-02-04T05:45:37;8.87;;;5.00;;
19043;SDS011;9654;52.302;8.120;2024-02-04T05:48:06;9.23;;;5.53;;
19043;SDS011;9654;52.302;8.120;2024-02-04T05:50:34;12.93;;;4.73;;
19043;SDS011;9654;52.302;8.120;2024-02-04T05:53:02;8.47;;;5.00;;
19043;SDS011;9654;52.302;8.120;2024-02-04T05:55:29;14.17;;;6.07;;
19043;SDS011;9654;52.302;8.120;2024-02-04T05:57:56;10.97;;;4.93;;
19043;SDS011;9654;52.302;8.120;2024-02-04T06:00:23;6.47;;;4.23;;
19043;SDS011;9654;52.302;8.120;2024-02-04T06:02:51;9.33;;;4.40;;
19043;SDS011;9654;52.302;8.120;2024-02-04T06:05:18;10.33;;;4.20;;
19043;SDS011;9654;52.302;8.120;2024-02-04T06:07:46;7.87;;;4.03;;
19043;SDS011;9654;52.302;8.120;2024-02-04T06:10:13;10.43;;;4.00;;
19043;SDS011;9654;52.302;8.120;2024-02-04T06:12:40;9.70;;;3.83;;
19043;SDS011;9654;52.302;8.120;2024-02-04T06:15:11;7.90;;;3.00;;
19043;SDS011;9654;52.302;8.120;2024-02-04T06:17:39;9.40;;;2.67;;
19043;SDS011;9654;52.302;8.120;2024-02-04T06:20:06;10.03;;;4.00;;
19043;SDS011;9654;52.302;8.120;2024-02-04T06:22:33;5.57;;;3.10;;
19043;SDS011;9654;52.302;8.120;2024-02-04T06:25:02;7.13;;;2.90;;
19043;SDS011;9654;52.302;8.120;2024-02-04T06:27:30;4.37;;;1.77;;
19043;SDS011;9654;52.302;8.120;2024-02-04T06:29:56;8.30;;;2.73;;
19043;SDS011;9654;52.302;8.120;2024-02-04T06:32:23;9.27;;;2.30;;
19043;SDS011;9654;52.302;8.120;2024-02-04T06:34:50;7.70;;;2.20;;
19043;SDS011;9654;52.302;8.120;2024-02-04T06:37:19;9.97;;;2.30;;
19043;SDS011;9654;52.302;8.120;2024-02-04T06:39:46;5.73;;;1.60;;
19043;SDS011;9654;52.302;8.120;2024-02-04T06:42:14;4.30;;;1.87;;
19043;SDS011;9654;52.302;8.120;2024-02-04T06:44:42;6.27;;;2.00;;
19043;SDS011;9654;52.302;8.120;2024-02-04T06:47:10;9.50;;;2.00;;
19043;SDS011;9654;52.302;8.120;2024-02-04T06:49:37;9.20;;;1.83;;
19043;SDS011;9654;52.302;8.120;2024-02-04T06:52:05;6.20;;;1.43;;
19043;SDS011;9654;52.302;8.120;2024-02-04T06:54:32;7.20;;;1.80;;
19043;SDS011;9654;52.302;8.120;2024-02-04T06:56:59;7.77;;;2.40;;
19043;SDS011;9654;52.302;8.120;2024-02-04T06:59:27;7.83;;;2.07;;
19043;SDS011;9654;52.302;8.120;2024-02-04T07:01:54;9.57;;;1.97;;
19043;SDS011;9654;52.302;8.120;2024-02-04T07:04:21;10.27;;;2.13;;
19043;SDS011;9654;52.302;8.120;2024-02-04T07:06:49;6.90;;;1.80;;
19043;SDS011;9654;52.302;8.120;2024-02-04T07:09:16;12.70;;;3.17;;
19043;SDS011;9654;52.302;8.120;2024-02-04T07:11:43;5.40;;;2.17;;
19043;SDS011;9654;52.302;8.120;2024-02-04T07:14:11;7.67;;;3.77;;
19043;SDS011;9654;52.302;8.120;2024-02-04T07:16:39;9.20;;;2.80;;
19043;SDS011;9654;52.302;8.120;2024-02-04T07:19:06;9.27;;;2.77;;
19043;SDS011;9654;52.302;8.120;2024-02-04T07:21:33;8.27;;;1.97;;
19043;SDS011;9654;52.302;8.120;2024-02-04T07:24:00;7.80;;;2.53;;
19043;SDS011;9654;52.302;8.120;2024-02-04T07:26:29;7.53;;;3.43;;
19043;SDS011;9654;52.302;8.120;2024-02-04T07:28:55;7.10;;;2.20;;
19043;SDS011;9654;52.302;8.120;2024-02-04T07:31:22;11.77;;;2.93;;
19043;SDS011;9654;52.302;8.120;2024-02-04T07:33:51;8.70;;;2.13;;
19043;SDS011;9654;52.302;8.120;2024-02-04T07:36:17;15.33;;;4.33;;
19043;SDS011;9654;52.302;8.120;2024-02-04T07:38:44;9.27;;;2.50;;
19043;SDS011;9654;52.302;8.120;2024-02-04T07:41:13;8.63;;;2.33;;
19043;SDS011;9654;52.302;8.120;2024-02-04T07:43:40;8.73;;;2.30;;
19043;SDS011;9654;52.302;8.120;2024-02-04T07:46:09;11.77;;;2.57;;
19043;SDS011;9654;52.302;8.120;2024-02-04T07:48:35;6.13;;;1.60;;
19043;SDS011;9654;52.302;8.120;2024-02-04T07:51:04;8.63;;;2.90;;
19043;SDS011;9654;52.302;8.120;2024-02-04T07:53:31;9.87;;;2.00;;
19043;SDS011;9654;52.302;8.120;2024-02-04T07:55:58;9.27;;;2.37;;
19043;SDS011;9654;52.302;8.120;2024-02-04T07:58:24;7.53;;;2.10;;
19043;SDS011;9654;52.302;8.120;2024-02-04T08:00:52;10.73;;;2.50;;
19043;SDS011;9654;52.302;8.120;2024-02-04T08:03:19;5.63;;;2.03;;
19043;SDS011;9654;52.302;8.120;2024-02-04T08:05:46;13.63;;;2.10;;
19043;SDS011;9654;52.302;8.120;2024-02-04T08:08:14;15.27;;;5.53;;
19043;SDS011;9654;52.302;8.120;2024-02-04T08:10:41;9.37;;;2.27;;
19043;SDS011;9654;52.302;8.120;2024-02-04T08:13:08;11.80;;;2.23;;
19043;SDS011;9654;52.302;8.120;2024-02-04T08:15:35;9.53;;;2.40;;
19043;SDS011;9654;52.302;8.120;2024-02-04T08:18:03;12.90;;;2.00;;
19043;SDS011;9654;52.302;8.120;2024-02-04T08:20:30;12.00;;;2.27;;
19043;SDS011;9654;52.302;8.120;2024-02-04T08:22:57;11.40;;;2.10;;
19043;SDS011;9654;52.302;8.120;2024-02-04T08:25:26;9.30;;;2.70;;
19043;SDS011;9654;52.302;8.120;2024-02-04T08:27:52;6.17;;;2.13;;
19043;SDS011;9654;52.302;8.120;2024-02-04T08:30:19;12.27;;;2.53;;
19043;SDS011;9654;52.302;8.120;2024-02-04T08:32:46;8.13;;;2.00;;
19043;SDS011;9654;52.302;8.120;2024-02-04T08:35:13;9.27;;;2.10;;
19043;SDS011;9654;52.302;8.120;2024-02-04T08:37:40;15.23;;;2.67;;
19043;SDS011;9654;52.302;8.120;2024-02-04T08:40:07;6.93;;;2.03;;
19043;SDS011;9654;52.302;8.120;2024-02-04T08:42:37;9.73;;;2.23;;
19043;SDS011;9654;52.302;8.120;2024-02-04T08:45:04;9.53;;;2.67;;
19043;SDS011;9654;52.302;8.120;2024-02-04T08:47:31;8.87;;;2.17;;
19043;SDS011;9654;52.302;8.120;2024-02-04T08:49:58;12.30;;;2.63;;
19043;SDS011;9654;52.302;8.120;2024-02-04T08:52:25;9.50;;;2.90;;
19043;SDS011;9654;52.302;8.120;2024-02-04T08:54:53;10.73;;;2.53;;
19043;SDS011;9654;52.302;8.120;2024-02-04T08:57:20;10.97;;;2.23;;
19043;SDS011;9654;52.302;8.120;2024-02-04T08:59:48;9.23;;;2.20;;
19043;SDS011;9654;52.302;8.120;2024-02-04T09:02:15;12.87;;;2.33;;
19043;SDS011;9654;52.302;8.120;2024-02-04T09:04:42;7.40;;;2.00;;
19043;SDS011;9654;52.302;8.120;2024-02-04T09:07:09;14.53;;;2.03;;
19043;SDS011;9654;52.302;8.120;2024-02-04T09:09:36;13.83;;;2.70;;
19043;SDS011;9654;52.302;8.120;2024-02-04T09:12:03;9.43;;;1.90;;
19043;SDS011;9654;52.302;8.120;2024-02-04T09:14:30;7.77;;;2.07;;
19043;SDS011;9654;52.302;8.120;2024-02-04T09:16:58;12.00;;;2.00;;
19043;SDS011;9654;52.302;8.120;2024-02-04T09:19:28;9.53;;;1.77;;
19043;SDS011;9654;52.302;8.120;2024-02-04T09:21:56;16.53;;;3.13;;
19043;SDS011;9654;52.302;8.120;2024-02-04T09:24:22;13.60;;;3.13;;
19043;SDS011;9654;52.302;8.120;2024-02-04T09:26:49;6.87;;;2.17;;
19043;SDS011;9654;52.302;8.120;2024-02-04T09:29:16;10.53;;;2.13;;
19043;SDS011;9654;52.302;8.120;2024-02-04T09:31:43;6.57;;;2.10;;
19043;SDS011;9654;52.302;8.120;2024-02-04T09:34:11;5.80;;;1.50;;
19043;SDS011;9654;52.302;8.120;2024-02-04T09:36:38;6.43;;;2.50;;
19043;SDS011;9654;52.302;8.120;2024-02-04T09:39:05;6.53;;;1.43;;
19043;SDS011;9654;52.302;8.120;2024-02-04T09:41:33;4.13;;;1.50;;
19043;SDS011;9654;52.302;8.120;2024-02-04T09:44:00;6.53;;;1.63;;
19043;SDS011;9654;52.302;8.120;2024-02-04T09:46:28;2.57;;;1.43;;
19043;SDS011;9654;52.302;8.120;2024-02-04T09:48:55;9.20;;;1.63;;
19043;SDS011;9654;52.302;8.120;2024-02-04T09:51:24;4.10;;;1.53;;
19043;SDS011;9654;52.302;8.120;2024-02-04T09:53:52;4.63;;;2.17;;
19043;SDS011;9654;52.302;8.120;2024-02-04T09:56:21;7.83;;;2.20;;
19043;SDS011;9654;52.302;8.120;2024-02-04T09:58:51;4.37;;;1.20;;
19043;SDS011;9654;52.302;8.120;2024-02-04T10:01:18;9.57;;;1.80;;
19043;SDS011;9654;52.302;8.120;2024-02-04T10:03:47;5.00;;;1.30;;
19043;SDS011;9654;52.302;8.120;2024-02-04T10:06:14;2.10;;;1.13;;
19043;SDS011;9654;52.302;8.120;2024-02-04T10:08:43;3.50;;;1.50;;
19043;SDS011;9654;52.302;8.120;2024-02-04T10:11:11;4.97;;;1.77;;
19043;SDS011;9654;52.302;8.120;2024-02-04T10:13:44;4.60;;;1.17;;
19043;SDS011;9654;52.302;8.120;2024-02-04T10:16:11;3.10;;;0.90;;
19043;SDS011;9654;52.302;8.120;2024-02-04T10:18:40;1.67;;;1.30;;
19043;SDS011;9654;52.302;8.120;2024-02-04T10:21:14;3.27;;;1.10;;
19043;SDS011;9654;52.302;8.120;2024-02-04T10:23:44;6.07;;;2.37;;
19043;SDS011;9654;52.302;8.120;2024-02-04T10:26:10;5.80;;;1.20;;
19043;SDS011;9654;52.302;8.120;2024-02-04T10:28:37;4.60;;;1.00;;
19043;SDS011;9654;52.302;8.120;2024-02-04T10:31:06;2.07;;;0.93;;
19043;SDS011;9654;52.302;8.120;2024-02-04T10:33:34;2.23;;;0.70;;
19043;SDS011;9654;52.302;8.120;2024-02-04T10:36:01;2.80;;;1.27;;
19043;SDS011;9654;52.302;8.120;2024-02-04T10:38:28;3.40;;;0.77;;
19043;SDS011;9654;52.302;8.120;2024-02-04T10:40:58;1.33;;;0.60;;
19043;SDS011;9654;52.302;8.120;2024-02-04T10:43:27;1.60;;;0.90;;
19043;SDS011;9654;52.302;8.120;2024-02-04T10:45:57;2.67;;;0.70;;
19043;SDS011;9654;52.302;8.120;2024-02-04T10:48:28;2.77;;;0.70;;
19043;SDS011;9654;52.302;8.120;2024-02-04T10:51:03;4.33;;;0.80;;
19043;SDS011;9654;52.302;8.120;2024-02-04T10:53:31;6.03;;;0.83;;
19043;SDS011;9654;52.302;8.120;2024-02-04T10:56:00;1.27;;;0.70;;
19043;SDS011;9654;52.302;8.120;2024-02-04T10:58:29;1.90;;;0.80;;
19043;SDS011;9654;52.302;8.120;2024-02-04T11:00:56;3.90;;;1.00;;
19043;SDS011;9654;52.302;8.120;2024-02-04T11:03:23;1.80;;;0.87;;
19043;SDS011;9654;52.302;8.120;2024-02-04T11:05:52;1.77;;;1.03;;
19043;SDS011;9654;52.302;8.120;2024-02-04T11:08:21;1.93;;;1.13;;
19043;SDS011;9654;52.302;8.120;2024-02-04T11:10:48;1.77;;;1.20;;
19043;SDS011;9654;52.302;8.120;2024-02-04T11:13:16;7.03;;;2.53;;
19043;SDS011;9654;52.302;8.120;2024-02-04T11:15:43;2.47;;;1.20;;
19043;SDS011;9654;52.302;8.120;2024-02-04T11:18:15;3.97;;;1.70;;
19043;SDS011;9654;52.302;8.120;2024-02-04T11:21:07;5.17;;;1.90;;
19043;SDS011;9654;52.302;8.120;2024-02-04T11:23:48;2.57;;;1.43;;
19043;SDS011;9654;52.302;8.120;2024-02-04T11:26:25;3.77;;;1.80;;
19043;SDS011;9654;52.302;8.120;2024-02-04T11:28:54;3.00;;;2.07;;
19043;SDS011;9654;52.302;8.120;2024-02-04T11:31:21;3.00;;;2.13;;
19043;SDS011;9654;52.302;8.120;2024-02-04T11:33:50;3.50;;;1.40;;
19043;SDS011;9654;52.302;8.120;2024-02-04T11:36:17;5.00;;;1.63;;
19043;SDS011;9654;52.302;8.120;2024-02-04T11:38:47;7.73;;;2.17;;
19043;SDS011;9654;52.302;8.120;2024-02-04T11:41:21;3.67;;;1.80;;
19043;SDS011;9654;52.302;8.120;2024-02-04T11:43:51;7.27;;;2.07;;
19043;SDS011;9654;52.302;8.120;2024-02-04T11:46:20;4.83;;;1.50;;
19043;SDS011;9654;52.302;8.120;2024-02-04T11:48:51;2.97;;;1.50;;
19043;SDS011;9654;52.302;8.120;2024-02-04T11:51:21;4.70;;;2.10;;
19043;SDS011;9654;52.302;8.120;2024-02-04T11:53:49;2.73;;;1.80;;
19043;SDS011;9654;52.302;8.120;2024-02-04T11:56:16;4.13;;;1.87;;
19043;SDS011;9654;52.302;8.120;2024-02-04T11:58:44;4.83;;;2.00;;
19043;SDS011;9654;52.302;8.120;2024-02-04T12:01:11;4.53;;;2.07;;
19043;SDS011;9654;52.302;8.120;2024-02-04T12:03:39;4.40;;;1.97;;
19043;SDS011;9654;52.302;8.120;2024-02-04T12:06:06;3.83;;;2.03;;
19043;SDS011;9654;52.302;8.120;2024-02-04T12:08:34;5.57;;;2.57;;
19043;SDS011;9654;52.302;8.120;2024-02-04T12:11:03;4.50;;;2.40;;
19043;SDS011;9654;52.302;8.120;2024-02-04T12:13:31;4.10;;;2.40;;
19043;SDS011;9654;52.302;8.120;2024-02-04T12:16:03;11.50;;;3.80;;
19043;SDS011;9654;52.302;8.120;2024-02-04T12:18:30;5.90;;;2.57;;
19043;SDS011;9654;52.302;8.120;2024-02-04T12:20:59;5.80;;;2.97;;
19043;SDS011;9654;52.302;8.120;2024-02-04T12:23:26;9.23;;;3.00;;
19043;SDS011;9654;52.302;8.120;2024-02-04T12:25:54;7.57;;;3.50;;
19043;SDS011;9654;52.302;8.120;2024-02-04T12:28:21;7.77;;;3.73;;
19043;SDS011;9654;52.302;8.120;2024-02-04T12:30:52;8.83;;;4.07;;
19043;SDS011;9654;52.302;8.120;2024-02-04T12:33:20;10.57;;;3.93;;
19043;SDS011;9654;52.302;8.120;2024-02-04T12:35:48;7.73;;;4.17;;
19043;SDS011;9654;52.302;8.120;2024-02-04T12:38:18;8.57;;;3.60;;
19043;SDS011;9654;52.302;8.120;2024-02-04T12:40:45;8.53;;;4.50;;
19043;SDS011;9654;52.302;8.120;2024-02-04T12:43:12;10.27;;;4.53;;
19043;SDS011;9654;52.302;8.120;2024-02-04T12:45:39;12.07;;;5.97;;
19043;SDS011;9654;52.302;8.120;2024-02-04T12:48:06;6.20;;;4.70;;
19043;SDS011;9654;52.302;8.120;2024-02-04T12:50:36;12.53;;;5.13;;
19043;SDS011;9654;52.302;8.120;2024-02-04T12:53:04;8.87;;;5.73;;
19043;SDS011;9654;52.302;8.120;2024-02-04T12:55:33;9.53;;;5.63;;
19043;SDS011;9654;52.302;8.120;2024-02-04T12:58:01;6.50;;;3.80;;
19043;SDS011;9654;52.302;8.120;2024-02-04T13:00:30;7.23;;;3.90;;
19043;SDS011;9654;52.302;8.120;2024-02-04T13:02:57;7.50;;;4.40;;
19043;SDS011;9654;52.302;8.120;2024-02-04T13:05:24;4.83;;;4.00;;
19043;SDS011;9654;52.302;8.120;2024-02-04T13:07:53;4.07;;;3.43;;
19043;SDS011;9654;52.302;8.120;2024-02-04T13:10:22;5.40;;;3.90;;
19043;SDS011;9654;52.302;8.120;2024-02-04T13:13:04;9.60;;;4.50;;
19043;SDS011;9654;52.302;8.120;2024-02-04T13:15:33;5.30;;;3.50;;
19043;SDS011;9654;52.302;8.120;2024-02-04T13:18:03;12.63;;;3.97;;
19043;SDS011;9654;52.302;8.120;2024-02-04T13:20:30;5.50;;;2.67;;
19043;SDS011;9654;52.302;8.120;2024-02-04T13:22:57;6.77;;;2.70;;
19043;SDS011;9654;52.302;8.120;2024-02-04T13:25:25;3.03;;;2.10;;
19043;SDS011;9654;52.302;8.120;2024-02-04T13:27:53;5.67;;;3.53;;
19043;SDS011;9654;52.302;8.120;2024-02-04T13:30:22;1.90;;;1.77;;
19043;SDS011;9654;52.302;8.120;2024-02-04T13:32:49;3.20;;;1.87;;
19043;SDS011;9654;52.302;8.120;2024-02-04T13:35:17;3.50;;;1.27;;
19043;SDS011;9654;52.302;8.120;2024-02-04T13:37:45;2.93;;;0.90;;
19043;SDS011;9654;52.302;8.120;2024-02-04T13:40:13;1.50;;;1.20;;
19043;SDS011;9654;52.302;8.120;2024-02-04T13:42:41;3.67;;;1.33;;
19043;SDS011;9654;52.302;8.120;2024-02-04T13:45:08;2.70;;;1.00;;
19043;SDS011;9654;52.302;8.120;2024-02-04T13:47:37;1.67;;;1.10;;
19043;SDS011;9654;52.302;8.120;2024-02-04T13:50:04;1.60;;;0.93;;
19043;SDS011;9654;52.302;8.120;2024-02-04T13:52:33;3.63;;;0.70;;
19043;SDS011;9654;52.302;8.120;2024-02-04T13:55:00;2.60;;;0.80;;
19043;SDS011;9654;52.302;8.120;2024-02-04T13:57:27;2.10;;;0.70;;
19043;SDS011;9654;52.302;8.120;2024-02-04T13:59:54;3.90;;;1.57;;
19043;SDS011;9654;52.302;8.120;2024-02-04T14:02:20;3.23;;;0.90;;
19043;SDS011;9654;52.302;8.120;2024-02-04T14:04:50;2.87;;;0.87;;
19043;SDS011;9654;52.302;8.120;2024-02-04T14:07:17;0.87;;;0.67;;
19043;SDS011;9654;52.302;8.120;2024-02-04T14:09:44;3.57;;;0.83;;
19043;SDS011;9654;52.302;8.120;2024-02-04T14:12:11;2.87;;;0.80;;
19043;SDS011;9654;52.302;8.120;2024-02-04T14:14:39;1.37;;;1.00;;
19043;SDS011;9654;52.302;8.120;2024-02-04T14:17:06;6.20;;;1.33;;
19043;SDS011;9654;52.302;8.120;2024-02-04T14:19:33;5.37;;;0.90;;
19043;SDS011;9654;52.302;8.120;2024-02-04T14:22:01;0.90;;;0.70;;
19043;SDS011;9654;52.302;8.120;2024-02-04T14:24:28;3.20;;;1.30;;
19043;SDS011;9654;52.302;8.120;2024-02-04T14:26:56;3.40;;;1.10;;
19043;SDS011;9654;52.302;8.120;2024-02-04T14:29:23;3.63;;;1.10;;
19043;SDS011;9654;52.302;8.120;2024-02-04T14:31:51;2.63;;;0.80;;
19043;SDS011;9654;52.302;8.120;2024-02-04T14:34:18;5.33;;;1.10;;
19043;SDS011;9654;52.302;8.120;2024-02-04T14:36:45;2.23;;;1.10;;
19043;SDS011;9654;52.302;8.120;2024-02-04T14:39:13;5.57;;;1.17;;
19043;SDS011;9654;52.302;8.120;2024-02-04T14:41:40;2.50;;;1.00;;
19043;SDS011;9654;52.302;8.120;2024-02-04T14:44:08;3.93;;;1.10;;
19043;SDS011;9654;52.302;8.120;2024-02-04T14:46:36;6.53;;;1.77;;
19043;SDS011;9654;52.302;8.120;2024-02-04T14:49:03;4.10;;;1.27;;
19043;SDS011;9654;52.302;8.120;2024-02-04T14:51:30;4.43;;;1.50;;
19043;SDS011;9654;52.302;8.120;2024-02-04T14:53:57;9.97;;;2.17;;